Time;durP1;ratioP1;P1;durP2;ratioP2;P2;SDS_P1;SDS_P2;PMS_P1;PMS_P2;Temp;Humidity;BMP_temperature;BMP_pressure;BME280_temperature;BME280_humidity;BME280_pressure;Samples;Min_cycle;Max_cycle;Signal;HPM_P1;HPM_P2
2022/06/05 00:01:05;;;;;;;5.32;3.60;;;26.30;70.40;;;;;;11018365;32;20042;-76
2022/06/05 00:07:15;;;;;;;5.90;4.07;;;26.20;70.30;;;;;;11019235;32;20042;-76
2022/06/05 00:13:28;;;;;;;4.68;3.03;;;26.10;70.50;;;;;;11019801;32;20018;-76
2022/06/05 00:19:31;;;;;;;6.28;4.65;;;26.10;70.50;;;;;;11019312;32;20057;-75
2022/06/05 00:25:51;;;;;;;7.07;4.37;;;26.10;70.40;;;;;;11019220;32;20318;-75
2022/06/05 00:32:15;;;;;;;6.30;3.58;;;26.00;70.50;;;;;;11019076;32;20023;-76
2022/06/05 00:38:47;;;;;;;9.77;3.95;;;25.90;70.60;;;;;;11018661;32;20022;-76
2022/06/05 00:45:04;;;;;;;5.85;3.92;;;26.00;70.60;;;;;;10802092;32;20054;-75
2022/06/05 00:51:06;;;;;;;5.70;3.53;;;26.00;70.70;;;;;;10826460;32;20027;-76
2022/06/05 00:57:11;;;;;;;9.70;3.85;;;26.00;71.00;;;;;;10826305;32;20051;-75
2022/06/05 01:03:15;;;;;;;5.75;4.05;;;25.90;71.00;;;;;;10827203;32;20024;-75
2022/06/05 01:09:17;;;;;;;6.32;4.20;;;25.70;71.20;;;;;;10827059;32;20054;-75
2022/06/05 01:15:46;;;;;;;8.10;5.72;;;25.70;71.40;;;;;;10829418;27;20048;-75
2022/06/05 01:21:55;;;;;;;;;;;25.70;71.30;;;;;;10980715;32;20022;-75
2022/06/05 01:28:06;;;;;;;7.40;4.43;;;25.70;71.30;;;;;;11017680;32;20297;-75
2022/06/05 01:34:19;;;;;;;9.30;4.35;;;25.70;71.50;;;;;;11017501;32;20056;-75
2022/06/05 01:40:34;;;;;;;7.20;4.37;;;25.70;71.50;;;;;;11017491;32;20042;-75
2022/06/05 01:46:38;;;;;;;5.72;4.03;;;25.60;71.60;;;;;;11014005;32;20034;-75
2022/06/05 01:53:12;;;;;;;6.03;4.25;;;25.60;71.80;;;;;;11017169;32;20023;-75
2022/06/05 01:59:23;;;;;;;7.30;4.05;;;25.50;71.60;;;;;;11016633;32;20026;-75
2022/06/05 02:05:52;;;;;;;5.43;4.37;;;25.40;71.80;;;;;;11016999;32;20045;-75
2022/06/05 02:11:54;;;;;;;6.75;4.78;;;25.40;71.90;;;;;;11013770;32;20026;-75
2022/06/05 02:17:57;;;;;;;9.05;5.90;;;25.40;72.00;;;;;;11016820;32;20334;-75
2022/06/05 02:24:01;;;;;;;6.87;4.28;;;25.40;72.10;;;;;;11012411;32;20065;-75
2022/06/05 02:30:06;;;;;;;6.93;4.57;;;25.30;72.00;;;;;;11007640;32;20026;-75
2022/06/05 02:36:20;;;;;;;6.20;4.43;;;25.30;72.30;;;;;;11005283;32;20052;-75
2022/06/05 02:42:27;;;;;;;7.93;4.30;;;25.30;72.40;;;;;;11009484;32;20026;-75
2022/06/05 02:48:48;;;;;;;8.75;5.65;;;25.30;72.70;;;;;;11023451;32;20026;-76
2022/06/05 02:55:01;;;;;;;8.32;5.85;;;25.30;72.80;;;;;;11022564;32;20026;-76
2022/06/05 03:07:24;;;;;;;8.68;6.53;;;25.10;73.70;;;;;;11020675;32;20353;-75
2022/06/05 03:13:27;;;;;;;5.90;4.55;;;25.00;74.20;;;;;;11021960;32;20334;-76
2022/06/05 03:19:29;;;;;;;10.15;6.18;;;24.90;74.40;;;;;;11021657;32;20346;-75
2022/06/05 03:25:31;;;;;;;8.23;6.10;;;24.90;74.70;;;;;;11021380;32;20499;-75
2022/06/05 03:31:35;;;;;;;8.50;4.70;;;24.90;74.30;;;;;;11021264;32;20044;-75
2022/06/05 03:37:37;;;;;;;12.80;6.87;;;24.90;74.20;;;;;;11021017;32;20026;-76
2022/06/05 03:43:39;;;;;;;6.07;4.80;;;24.90;74.40;;;;;;11020820;32;20022;-75
2022/06/05 03:49:41;;;;;;;9.77;6.28;;;24.80;75.00;;;;;;11020691;32;20045;-75
2022/06/05 03:55:43;;;;;;;7.05;5.12;;;24.70;75.10;;;;;;11020306;32;20018;-75
2022/06/05 04:01:45;;;;;;;9.68;5.95;;;24.80;75.10;;;;;;11020205;32;20018;-75
2022/06/05 04:07:47;;;;;;;5.57;4.18;;;24.90;74.60;;;;;;11019954;32;20026;-75
2022/06/05 04:14:09;;;;;;;9.73;5.43;;;24.90;74.40;;;;;;11016905;32;20069;-75
2022/06/05 04:20:11;;;;;;;7.28;5.40;;;25.00;74.40;;;;;;11019632;32;20041;-76
2022/06/05 04:26:17;;;;;;;6.80;5.07;;;24.90;74.70;;;;;;11019297;32;20370;-75
2022/06/05 04:32:19;;;;;;;9.02;6.62;;;24.80;75.00;;;;;;11019109;32;20019;-75
2022/06/05 04:38:21;;;;;;;7.62;5.28;;;24.90;75.00;;;;;;11018978;32;20430;-75
2022/06/05 04:44:23;;;;;;;9.20;5.53;;;24.90;74.70;;;;;;11018658;32;20041;-75
2022/06/05 04:50:25;;;;;;;11.30;8.38;;;24.90;74.80;;;;;;11018140;32;20060;-75
2022/06/05 04:56:27;;;;;;;8.85;5.93;;;25.00;74.50;;;;;;11018497;32;20019;-75
2022/06/05 05:02:29;;;;;;;7.95;6.47;;;24.90;74.50;;;;;;11018286;32;20057;-75
2022/06/05 05:08:32;;;;;;;10.07;8.00;;;25.00;74.40;;;;;;11018027;32;20099;-75
2022/06/05 05:14:34;;;;;;;11.38;5.07;;;25.10;74.10;;;;;;11017975;32;20026;-75
2022/06/05 05:20:36;;;;;;;14.30;8.02;;;25.20;74.00;;;;;;11013464;32;20018;-75
2022/06/05 05:26:38;;;;;;;10.20;6.85;;;25.20;74.00;;;;;;11004034;32;20065;-75
2022/06/05 05:32:40;;;;;;;10.00;7.15;;;25.30;73.90;;;;;;11014915;32;20026;-75
2022/06/05 05:42:04;;;;;;;9.20;7.12;;;25.30;73.70;;;;;;11013277;32;20046;-75
2022/06/05 05:45:05;;;;;;;9.68;7.12;;;25.40;73.60;;;;;;11014281;32;20409;-75
2022/06/05 05:51:12;;;;;;;10.57;7.47;;;25.50;73.30;;;;;;11017235;32;20041;-75
2022/06/05 05:57:16;;;;;;;9.05;7.10;;;25.60;73.10;;;;;;11013192;32;20026;-75
2022/06/05 06:03:18;;;;;;;9.23;7.80;;;25.70;72.80;;;;;;11019779;32;20030;-76
2022/06/05 06:09:20;;;;;;;10.13;7.85;;;25.80;72.60;;;;;;11024045;32;20068;-75
2022/06/05 06:15:22;;;;;;;11.52;5.90;;;25.90;72.70;;;;;;11009568;32;20088;-75
2022/06/05 06:21:24;;;;;;;9.43;6.35;;;26.00;72.80;;;;;;11023833;32;20022;-76
2022/06/05 06:27:27;;;;;;;10.38;7.18;;;26.10;72.60;;;;;;11021406;32;20033;-75
2022/06/05 06:33:29;;;;;;;12.50;6.70;;;26.20;72.70;;;;;;11020630;32;20040;-75
2022/06/05 06:39:31;;;;;;;9.20;7.28;;;26.30;72.60;;;;;;11022490;32;20429;-75
2022/06/05 06:45:33;;;;;;;10.15;6.57;;;26.30;72.40;;;;;;11020288;32;20118;-75
2022/06/05 06:51:35;;;;;;;10.65;8.32;;;26.40;72.20;;;;;;11022785;32;20386;-76
2022/06/05 06:57:37;;;;;;;5.37;3.58;;;26.50;71.80;;;;;;11008931;32;20072;-76
2022/06/05 07:03:39;;;;;;;18.60;7.30;;;26.60;71.80;;;;;;11019819;32;20339;-76
2022/06/05 07:09:41;;;;;;;10.30;5.10;;;26.70;71.80;;;;;;11019001;32;20053;-76
2022/06/05 07:15:45;;;;;;;9.88;6.55;;;26.90;71.40;;;;;;11021457;32;20026;-75
2022/06/05 07:21:48;;;;;;;9.00;5.68;;;27.10;71.00;;;;;;11021692;32;20026;-79
2022/06/05 07:27:50;;;;;;;14.07;8.02;;;27.20;70.70;;;;;;11021050;32;20418;-74
2022/06/05 07:33:52;;;;;;;8.38;5.55;;;27.30;70.50;;;;;;11021418;32;20064;-76
